Terminal Aerodrome Forecast
Issued by NWS Cleveland, OH

Home | Current Version | Previous Version | Graphics & Text | Print | Product List | Glossary On
Versions: 1 2 3 4 5 6 7 8 9 10 11 12 13 14 15 16 17 18 19 20
918
FTUS41 KCLE 121412 AAA
TAFYNG
TAF AMD
KYNG 121412Z 1214/1312 31012G20KT 2SM -SN OVC015
      TEMPO 1214/1216 31010KT 1/2SM SN OVC008
     FM121600 30018G28KT 5SM -SHSN OVC012
     FM121900 30018G28KT P6SM OVC025
     FM122200 30018G28KT 2SM -SHSN OVC012=

USA.gov is the U.S. government's official web portal to all federal, state and local government web resources and services.